createdAt,value
2019-05-23T00:01:45.246Z,19.83
2019-05-23T00:04:38.887Z,19.63
2019-05-23T00:07:12.576Z,19.30
2019-05-23T00:10:03.307Z,20.33
2019-05-23T00:13:00.619Z,19.87
2019-05-23T00:15:41.993Z,18.10
2019-05-23T00:18:40.948Z,17.07
2019-05-23T00:21:10.154Z,15.40
2019-05-23T01:14:00.200Z,14.50
2019-05-23T01:16:49.438Z,12.50
2019-05-23T01:19:21.661Z,11.63
2019-05-23T01:21:59.413Z,13.50
2019-05-23T01:24:53.656Z,11.37
2019-05-23T01:27:23.347Z,12.23
2019-05-23T01:30:13.296Z,13.00
2019-05-23T01:32:44.315Z,11.17
2019-05-23T01:35:33.852Z,12.70
2019-05-23T01:41:17.838Z,13.57
2019-05-23T01:43:50.773Z,14.50
2019-05-23T01:46:20.538Z,12.50
2019-05-23T01:48:50.060Z,12.23
2019-05-23T01:51:38.306Z,12.80
2019-05-23T01:54:14.540Z,11.57
2019-05-23T01:56:44.592Z,13.30
2019-05-23T01:59:38.865Z,13.27
2019-05-23T02:02:19.908Z,13.17
2019-05-23T02:05:27.494Z,12.13
2019-05-23T02:07:57.068Z,12.93
2019-05-23T02:11:08.485Z,13.27
2019-05-23T02:20:09.843Z,12.67
2019-05-23T02:28:44.248Z,14.10
2019-05-23T02:31:15.877Z,14.60
2019-05-23T02:34:27.982Z,13.47
2019-05-23T02:37:53.728Z,15.07
2019-05-23T02:43:33.379Z,14.63
2019-05-23T02:46:07.340Z,14.53
2019-05-23T02:48:58.767Z,14.30
2019-05-23T02:51:35.669Z,14.07
2019-05-23T02:54:07.176Z,14.73
2019-05-23T02:56:38.513Z,15.33
2019-05-23T02:59:19.143Z,14.60
2019-05-23T03:02:27.955Z,16.17
2019-05-23T03:04:58.772Z,14.70
2019-05-23T03:07:47.161Z,15.80
2019-05-23T03:10:31.374Z,14.90
2019-05-23T03:13:09.945Z,15.17
2019-05-23T03:15:58.678Z,15.87
2019-05-23T03:18:34.540Z,16.67
2019-05-23T03:21:23.020Z,14.83
2019-05-23T03:23:57.851Z,16.93
2019-05-23T03:26:56.938Z,15.87
2019-05-23T03:29:27.119Z,16.20
2019-05-23T03:32:02.246Z,16.90
2019-05-23T03:34:33.633Z,16.67
2019-05-23T03:37:03.764Z,17.17
2019-05-23T03:39:33.550Z,16.97
2019-05-23T03:42:03.247Z,16.10
2019-05-23T03:44:32.746Z,16.40
2019-05-23T03:47:03.553Z,17.97
2019-05-23T03:49:35.005Z,17.70
2019-05-23T03:52:32.374Z,19.67
2019-05-23T03:55:23.145Z,17.60
2019-05-23T03:57:54.008Z,17.23
2019-05-23T04:00:26.595Z,18.33
2019-05-23T04:03:39.114Z,18.67
2019-05-23T04:06:16.845Z,16.50
2019-05-23T04:08:46.622Z,17.97
2019-05-23T04:11:35.184Z,20.77
2019-05-23T04:14:30.934Z,16.43
2019-05-23T04:17:10.583Z,17.67
2019-05-23T04:20:06.799Z,17.13
2019-05-23T04:22:50.391Z,19.43
2019-05-23T04:25:20.090Z,18.53
2019-05-23T04:28:27.553Z,18.13
2019-05-23T04:31:15.740Z,17.57
2019-05-23T04:34:13.553Z,19.03
2019-05-23T04:36:52.418Z,18.33
2019-05-23T04:39:40.633Z,16.90
2019-05-23T04:42:21.523Z,18.77
2019-05-23T04:44:54.258Z,17.33
2019-05-23T04:47:43.948Z,17.90
2019-05-23T04:59:40.022Z,15.17
2019-05-23T05:02:26.882Z,17.00
2019-05-23T05:05:14.717Z,16.30
2019-05-23T05:07:57.484Z,17.90
2019-05-23T05:10:47.321Z,16.33
2019-05-23T05:13:54.439Z,17.47
2019-05-23T05:16:06.492Z,16.63
2019-05-23T05:18:39.437Z,15.83
2019-05-23T05:21:08.863Z,16.17
2019-05-23T05:30:02.273Z,16.43
2019-05-23T05:33:01.137Z,15.90
2019-05-23T05:35:35.607Z,17.00
2019-05-23T05:38:28.291Z,16.10
2019-05-23T05:40:55.443Z,15.00
2019-05-23T05:43:24.656Z,17.10
2019-05-23T05:45:53.938Z,14.37
2019-05-23T05:48:43.036Z,17.87
2019-05-23T05:51:15.616Z,18.30
2019-05-23T05:53:44.744Z,19.30
2019-05-23T05:56:13.956Z,16.40
2019-05-23T05:58:46.777Z,15.73
2019-05-23T06:08:10.880Z,16.60
2019-05-23T06:11:05.090Z,15.57
2019-05-23T06:16:57.469Z,18.77
2019-05-23T06:19:26.716Z,15.83
2019-05-23T06:26:17.314Z,15.07
2019-05-23T06:35:06.386Z,12.47
2019-05-23T06:37:39.771Z,10.57
2019-05-23T06:40:28.404Z,13.87
2019-05-23T06:52:01.796Z,11.17
2019-05-23T06:54:50.935Z,9.87
2019-05-23T06:57:39.305Z,10.50
2019-05-23T07:00:10.205Z,12.57
2019-05-23T07:02:58.596Z,12.40
2019-05-23T07:05:47.209Z,10.53
2019-05-23T07:08:25.176Z,10.80
2019-05-23T07:11:04.823Z,10.40
2019-05-23T07:13:53.421Z,14.17
2019-05-23T07:16:42.214Z,11.17
2019-05-23T07:19:44.921Z,12.77
2019-05-23T07:22:23.139Z,12.00
2019-05-23T07:25:31.641Z,11.63
2019-05-23T07:28:00.262Z,12.47
2019-05-23T07:30:33.201Z,10.90
2019-05-23T07:34:50.051Z,12.97
2019-05-23T07:36:30.541Z,11.43
2019-05-23T07:39:20.402Z,11.03
2019-05-23T07:42:28.494Z,12.80
2019-05-23T07:45:35.104Z,11.33
2019-05-23T07:48:13.369Z,12.07
2019-05-23T07:51:12.083Z,11.37
2019-05-23T07:56:55.408Z,13.57
2019-05-23T07:59:35.519Z,10.70
2019-05-23T08:02:47.579Z,9.90
2019-05-23T08:12:07.177Z,13.33
2019-05-23T08:18:27.699Z,12.97
2019-05-23T08:21:22.414Z,10.97
2019-05-23T08:23:54.722Z,15.00
2019-05-23T08:26:24.587Z,11.97
2019-05-23T08:29:26.106Z,13.13
2019-05-23T08:32:30.282Z,13.00
2019-05-23T08:38:50.098Z,11.10
2019-05-23T08:44:29.929Z,13.10
2019-05-23T08:50:43.078Z,11.70
2019-05-23T08:53:15.652Z,14.23
2019-05-23T08:56:19.553Z,11.57
2019-05-23T08:59:28.606Z,15.90
2019-05-23T09:14:01.887Z,8.53
2019-05-23T09:16:53.246Z,8.37
2019-05-23T09:19:51.981Z,6.03
2019-05-23T09:25:28.274Z,6.47
2019-05-23T09:28:19.825Z,4.50
2019-05-23T09:31:16.226Z,8.00
2019-05-23T09:34:10.080Z,6.90
2019-05-23T09:36:51.046Z,6.97
2019-05-23T09:39:42.376Z,6.53
2019-05-23T09:42:29.998Z,4.90
2019-05-23T09:45:09.888Z,7.17
2019-05-23T09:48:05.646Z,3.83
2019-05-23T09:50:49.354Z,6.33
2019-05-23T09:56:18.907Z,4.63
2019-05-23T09:58:57.908Z,5.20
2019-05-23T10:01:50.732Z,6.40
2019-05-23T10:04:39.569Z,6.03
2019-05-23T10:07:18.193Z,11.27
2019-05-23T10:10:00.654Z,6.40
2019-05-23T10:12:53.941Z,5.33
2019-05-23T10:15:41.754Z,6.30
2019-05-23T10:18:18.741Z,6.63
2019-05-23T10:21:36.826Z,7.10
2019-05-23T10:26:56.714Z,8.53
2019-05-23T10:29:45.578Z,8.90
2019-05-23T10:41:53.666Z,7.87
2019-05-23T10:54:03.633Z,7.33
2019-05-23T10:56:36.763Z,8.63
2019-05-23T10:57:31.409Z,6.13
2019-05-23T11:00:27.651Z,7.50
2019-05-23T11:03:18.527Z,8.90
2019-05-23T11:06:15.620Z,7.77
2019-05-23T11:08:57.216Z,6.07
2019-05-23T11:15:14.032Z,5.33
2019-05-23T11:18:33.064Z,4.53
2019-05-23T11:25:03.062Z,3.63
2019-05-23T11:33:34.790Z,6.90
2019-05-23T11:34:04.396Z,5.50
2019-05-23T11:37:05.379Z,4.63
2019-05-23T11:46:15.504Z,6.43
2019-05-23T11:48:55.185Z,8.33
2019-05-23T11:51:47.728Z,4.80
2019-05-23T11:54:31.272Z,7.53
2019-05-23T12:01:36.924Z,8.33
2019-05-23T12:04:38.752Z,7.60
2019-05-23T12:07:39.342Z,6.97
2019-05-23T12:10:20.893Z,4.83
2019-05-23T12:13:19.218Z,7.20
2019-05-23T12:16:00.219Z,7.47
2019-05-23T12:18:35.882Z,5.37
2019-05-23T12:21:43.265Z,4.77
2019-05-23T12:24:22.478Z,5.13
2019-05-23T12:27:38.791Z,4.40
2019-05-23T12:33:16.148Z,5.37
2019-05-23T12:35:36.824Z,7.60
2019-05-23T12:38:33.224Z,4.63
2019-05-23T12:41:00.435Z,5.47
2019-05-23T12:43:41.226Z,4.90
2019-05-23T12:46:48.666Z,5.87
2019-05-23T13:18:41.959Z,3.77
2019-05-23T13:24:20.269Z,4.27
2019-05-23T13:27:29.418Z,5.50
2019-05-23T13:33:41.679Z,9.57
2019-05-23T13:43:08.629Z,10.05
2019-05-23T13:55:07.332Z,9.40
2019-05-23T14:07:30.593Z,5.97
2019-05-23T14:47:25.483Z,11.90
2019-05-23T14:53:42.825Z,13.67
2019-05-23T15:06:58.807Z,7.83
2019-05-23T15:28:11.153Z,6.90
2019-05-23T15:31:28.364Z,8.13
2019-05-23T15:31:35.826Z,7.70
2019-05-23T15:41:26.180Z,7.07
2019-05-23T15:44:25.801Z,7.27
2019-05-23T15:53:27.123Z,8.63
2019-05-23T15:57:20.008Z,9.73
2019-05-23T15:59:57.251Z,8.43
2019-05-23T16:03:26.965Z,8.03
2019-05-23T16:24:55.845Z,9.70
2019-05-23T16:27:33.131Z,7.93
2019-05-23T16:30:21.495Z,8.93
2019-05-23T16:34:06.370Z,10.20
2019-05-23T16:36:16.274Z,9.20
2019-05-23T16:38:26.284Z,10.90
2019-05-23T17:03:06.217Z,10.27
2019-05-23T17:10:06.144Z,10.57
2019-05-23T17:16:44.292Z,12.30
2019-05-23T17:34:48.801Z,10.67
2019-05-23T17:41:04.646Z,12.23
2019-05-23T17:46:36.892Z,9.97
2019-05-23T17:49:35.859Z,9.90
2019-05-23T17:52:26.796Z,11.10
2019-05-23T17:58:04.136Z,10.40
2019-05-23T18:00:39.159Z,10.80
2019-05-23T18:03:28.218Z,10.77
2019-05-23T18:06:00.647Z,12.90
2019-05-23T18:08:31.986Z,15.87
2019-05-23T18:11:50.281Z,11.93
2019-05-23T18:14:34.652Z,11.37
2019-05-23T18:17:22.326Z,14.13
2019-05-23T18:20:12.494Z,12.57
2019-05-23T18:22:55.371Z,13.23
2019-05-23T18:28:48.380Z,11.00
2019-05-23T18:31:43.938Z,12.37
2019-05-23T18:34:16.883Z,11.87
2019-05-23T18:37:35.286Z,10.43
2019-05-23T18:40:22.689Z,10.57
2019-05-23T18:50:04.010Z,11.33
2019-05-23T18:52:40.313Z,12.67
2019-05-23T18:55:22.221Z,14.17
2019-05-23T18:58:13.817Z,13.27
2019-05-23T19:01:34.280Z,13.73
2019-05-23T19:04:37.805Z,12.43
2019-05-23T19:07:45.837Z,12.27
2019-05-23T19:14:26.043Z,10.80
2019-05-23T19:17:07.431Z,12.53
2019-05-23T19:20:03.954Z,11.17
2019-05-23T19:23:02.057Z,11.17
2019-05-23T19:25:31.516Z,10.20
2019-05-23T19:28:23.645Z,10.50
2019-05-23T19:30:56.705Z,9.70
2019-05-23T19:33:48.684Z,9.93
2019-05-23T19:36:27.466Z,8.60
2019-05-23T19:39:38.263Z,8.50
2019-05-23T19:42:11.112Z,8.57
2019-05-23T19:45:08.571Z,7.47
2019-05-23T19:47:44.576Z,8.90
2019-05-23T19:50:46.521Z,8.43
2019-05-23T19:53:22.611Z,9.10
2019-05-23T19:56:20.255Z,13.73
2019-05-23T19:59:09.315Z,13.80
2019-05-23T20:05:30.076Z,14.70
2019-05-23T20:08:18.349Z,14.33
2019-05-23T20:10:56.934Z,12.53
2019-05-23T20:13:54.621Z,11.80
2019-05-23T20:16:57.015Z,12.87
2019-05-23T20:19:28.106Z,12.17
2019-05-23T20:22:22.710Z,11.90
2019-05-23T20:25:03.012Z,11.83
2019-05-23T20:27:55.277Z,11.73
2019-05-23T20:31:18.982Z,10.43
2019-05-23T20:34:08.885Z,13.70
2019-05-23T20:36:57.152Z,16.03
2019-05-23T20:39:32.911Z,15.00
2019-05-23T20:42:24.371Z,15.57
2019-05-23T20:44:55.804Z,15.03
2019-05-23T20:48:03.072Z,18.53
2019-05-23T20:50:35.403Z,12.03
2019-05-23T20:53:11.329Z,11.43
2019-05-23T20:55:43.078Z,11.57
2019-05-23T20:58:53.823Z,13.37
2019-05-23T21:01:21.804Z,17.50
2019-05-23T21:03:54.422Z,16.10
2019-05-23T21:06:48.507Z,14.50
2019-05-23T21:09:21.400Z,15.30
2019-05-23T21:12:30.354Z,15.97
2019-05-23T21:15:43.380Z,15.60
2019-05-23T21:18:33.330Z,15.40
2019-05-23T21:21:05.681Z,16.20
2019-05-23T21:23:56.834Z,14.20
2019-05-23T21:26:24.937Z,15.53
2019-05-23T21:28:54.700Z,14.23
2019-05-23T21:31:42.988Z,15.13
2019-05-23T21:34:16.132Z,19.40
2019-05-23T21:36:57.742Z,17.80
2019-05-23T21:39:32.648Z,16.60
2019-05-23T21:42:10.308Z,16.47
2019-05-23T21:44:58.574Z,15.23
2019-05-23T21:47:34.180Z,15.50
2019-05-23T21:50:28.185Z,15.37
2019-05-23T21:53:26.843Z,16.03
2019-05-23T21:55:55.822Z,15.67
2019-05-23T21:58:25.006Z,16.97
2019-05-23T22:01:44.073Z,15.97
2019-05-23T22:04:30.852Z,15.90
2019-05-23T22:07:06.921Z,14.97
2019-05-23T22:09:55.100Z,15.17
2019-05-23T22:12:27.880Z,15.13
2019-05-23T22:15:29.504Z,14.83
2019-05-23T22:18:10.744Z,16.63
2019-05-23T22:21:01.927Z,16.27
2019-05-23T22:23:34.444Z,16.30
2019-05-23T22:26:20.952Z,16.70
2019-05-23T22:28:51.889Z,17.40
2019-05-23T22:31:40.152Z,17.87
2019-05-23T22:34:47.291Z,20.17
2019-05-23T22:37:30.333Z,18.77
2019-05-23T22:40:09.746Z,19.37
2019-05-23T22:43:20.163Z,19.83
2019-05-23T22:45:50.061Z,22.10
2019-05-23T22:48:44.191Z,21.53
2019-05-23T22:51:15.316Z,19.60
2019-05-23T22:54:05.001Z,23.50
2019-05-23T22:56:34.044Z,20.83
2019-05-23T22:59:03.558Z,19.37
2019-05-23T23:01:58.720Z,19.87
2019-05-23T23:04:29.399Z,19.07
2019-05-23T23:07:26.654Z,20.70
2019-05-23T23:09:59.390Z,21.97
2019-05-23T23:12:28.479Z,24.10
2019-05-23T23:14:57.531Z,25.13
2019-05-23T23:17:45.743Z,27.03
2019-05-23T23:20:33.920Z,27.33
2019-05-23T23:23:22.158Z,25.10
2019-05-23T23:25:51.419Z,25.63
2019-05-23T23:28:45.875Z,25.47
2019-05-23T23:31:34.153Z,24.77
2019-05-23T23:34:03.287Z,24.17
2019-05-23T23:36:51.392Z,22.87
2019-05-23T23:39:32.225Z,21.53
2019-05-23T23:42:05.540Z,22.27
2019-05-23T23:44:33.788Z,21.77
2019-05-23T23:47:21.956Z,20.20
2019-05-23T23:50:36.845Z,20.43
2019-05-23T23:53:45.724Z,20.20
2019-05-23T23:56:32.638Z,20.07
2019-05-23T23:59:25.740Z,20.37
